Gillespie, Illinois
Current Conditions -  °F | °C
As of 2:15 PM on Friday 31 Oct 2014 (Local Time) from K3LF Reporting Station
Scattered Clouds Scattered Clouds  
Wind Chill: 34°   Ceiling: Unl
Heat Index: 43°   Visibility: 10mi
Dew Point: 25°   Wind: 22mph
Humidity: 48%   Direction: 320°NW
Pressure: 30.25"   Gusts: 31mph
Location:  39.13°N, 89.82°W
Report Text: K3LF 311915Z AUTO 32019G27KT 10SM SCT047 06/M04 A3025 RMK AO2 T00631040
Loading
Personal Weather Stations






























Interactive Weather Map
Tropical Storm Tracking
New forecast layout! Learn more

10-Day Weather Forecast

Advertisements
Track Severe Weather on mobile